createdAt,value
2022-10-09T00:01:32.420Z,61.84
2022-10-09T00:04:01.485Z,61.78
2022-10-09T00:06:33.969Z,61.71
2022-10-09T00:09:04.147Z,61.86
2022-10-09T00:11:34.196Z,61.89
2022-10-09T00:14:03.865Z,61.98
2022-10-09T00:16:32.770Z,61.94
2022-10-09T00:19:01.423Z,62.02
2022-10-09T00:21:33.669Z,62.38
2022-10-09T00:24:03.846Z,62.28
2022-10-09T00:26:32.851Z,62.44
2022-10-09T00:29:01.486Z,62.55
2022-10-09T00:31:30.334Z,62.55
2022-10-09T00:33:58.853Z,62.65
2022-10-09T00:36:27.651Z,62.69
2022-10-09T00:38:56.539Z,62.61
2022-10-09T00:41:31.880Z,62.99
2022-10-09T00:44:42.544Z,62.85
2022-10-09T00:47:40.710Z,63.12
2022-10-09T00:50:39.713Z,63.46
2022-10-09T00:53:10.983Z,63.31
2022-10-09T00:55:40.150Z,63.49
2022-10-09T00:58:09.756Z,63.75
2022-10-09T01:00:38.030Z,63.69
2022-10-09T01:03:06.663Z,63.71
2022-10-09T01:05:43.991Z,63.77
2022-10-09T01:08:25.407Z,63.91
2022-10-09T01:11:09.944Z,63.65
2022-10-09T01:13:55.021Z,63.67
2022-10-09T01:16:29.794Z,63.61
2022-10-09T01:19:53.437Z,63.55
2022-10-09T01:22:36.482Z,63.35
2022-10-09T01:25:33.488Z,63.16
2022-10-09T01:28:04.609Z,63.21
2022-10-09T01:30:35.421Z,63.03
2022-10-09T01:33:05.668Z,63.35
2022-10-09T01:35:35.037Z,63.25
2022-10-09T01:38:04.758Z,63.38
2022-10-09T01:40:33.822Z,63.49
2022-10-09T01:43:02.376Z,63.47
2022-10-09T01:45:45.882Z,63.88
2022-10-09T01:48:25.250Z,64.03
2022-10-09T01:51:02.662Z,63.89
2022-10-09T01:53:33.683Z,64.43
2022-10-09T01:56:24.685Z,64.36
2022-10-09T01:59:01.353Z,64.48
2022-10-09T02:01:34.357Z,64.27
2022-10-09T02:04:08.580Z,64.45
2022-10-09T02:06:40.477Z,64.19
2022-10-09T02:09:15.759Z,64.20
2022-10-09T02:11:48.641Z,63.87
2022-10-09T02:14:17.144Z,64.34
2022-10-09T02:17:00.349Z,64.44
2022-10-09T02:19:37.231Z,64.57
2022-10-09T02:22:18.617Z,64.70
2022-10-09T02:24:47.776Z,65.14
2022-10-09T02:27:18.937Z,65.64
2022-10-09T02:29:48.457Z,66.03
2022-10-09T02:32:16.959Z,66.36
2022-10-09T02:34:45.630Z,66.11
2022-10-09T02:37:15.115Z,65.90
2022-10-09T02:39:44.020Z,65.85
2022-10-09T02:42:12.315Z,66.03
2022-10-09T02:44:40.680Z,66.38
2022-10-09T02:47:09.118Z,66.33
2022-10-09T02:49:37.731Z,67.44
2022-10-09T02:52:06.134Z,67.99
2022-10-09T02:54:34.515Z,68.65
2022-10-09T02:57:03.077Z,69.06
2022-10-09T02:59:32.402Z,69.43
2022-10-09T03:02:00.886Z,69.98
2022-10-09T03:04:29.368Z,70.29
2022-10-09T03:06:58.760Z,70.19
2022-10-09T03:09:30.295Z,70.58
2022-10-09T03:12:01.967Z,71.35
2022-10-09T03:14:30.347Z,71.69
2022-10-09T03:16:58.827Z,71.91
2022-10-09T03:19:27.206Z,71.67
2022-10-09T03:21:55.461Z,71.98
2022-10-09T03:24:23.898Z,72.51
2022-10-09T03:26:52.545Z,72.89
2022-10-09T03:29:21.046Z,73.00
2022-10-09T03:31:52.870Z,72.56
2022-10-09T03:34:21.596Z,72.78
2022-10-09T03:36:50.476Z,72.40
2022-10-09T03:39:18.840Z,72.86
2022-10-09T03:41:47.248Z,73.60
2022-10-09T03:44:15.494Z,73.62
2022-10-09T03:46:43.835Z,73.67
2022-10-09T03:49:12.459Z,73.23
2022-10-09T03:51:40.708Z,73.03
2022-10-09T03:54:09.215Z,73.01
2022-10-09T03:56:37.578Z,73.12
2022-10-09T03:59:07.809Z,72.99
2022-10-09T04:01:36.709Z,72.78
2022-10-09T04:04:04.975Z,72.80
2022-10-09T04:06:33.352Z,72.76
2022-10-09T04:09:01.941Z,72.63
2022-10-09T04:11:30.308Z,72.60
2022-10-09T04:13:58.754Z,72.72
2022-10-09T04:16:27.245Z,72.71
2022-10-09T04:18:55.772Z,73.04
2022-10-09T04:21:24.139Z,73.02
2022-10-09T04:23:53.016Z,73.25
2022-10-09T04:26:21.490Z,74.00
2022-10-09T04:28:50.027Z,74.25
2022-10-09T04:31:18.507Z,74.47
2022-10-09T04:33:47.029Z,74.33
2022-10-09T04:36:15.620Z,74.48
2022-10-09T04:38:43.900Z,74.49
2022-10-09T04:41:12.239Z,74.74
2022-10-09T04:43:42.517Z,74.66
2022-10-09T04:46:14.306Z,74.86
2022-10-09T04:48:46.423Z,74.79
2022-10-09T04:51:16.783Z,74.71
2022-10-09T04:53:45.692Z,74.38
2022-10-09T04:56:18.627Z,74.09
2022-10-09T04:58:48.224Z,73.97
2022-10-09T05:01:27.492Z,73.70
2022-10-09T05:03:56.545Z,73.07
2022-10-09T05:06:25.350Z,72.74
2022-10-09T05:08:54.517Z,72.87
2022-10-09T05:11:24.869Z,72.58
2022-10-09T05:13:56.166Z,72.60
2022-10-09T05:16:28.455Z,72.50
2022-10-09T05:18:59.030Z,72.58
2022-10-09T05:21:28.894Z,72.98
2022-10-09T05:23:58.068Z,72.96
2022-10-09T05:26:27.867Z,72.83
2022-10-09T05:28:56.128Z,72.83
2022-10-09T05:31:28.133Z,72.63
2022-10-09T05:34:00.334Z,72.41
2022-10-09T05:36:29.111Z,72.21
2022-10-09T05:38:58.376Z,71.95
2022-10-09T05:41:28.298Z,72.13
2022-10-09T05:44:02.352Z,72.37
2022-10-09T05:46:31.240Z,72.07
2022-10-09T05:49:05.706Z,71.33
2022-10-09T05:51:37.734Z,70.69
2022-10-09T05:54:07.149Z,71.05
2022-10-09T05:56:39.508Z,70.89
2022-10-09T05:59:15.345Z,70.77
2022-10-09T06:01:46.930Z,71.38
2022-10-09T06:04:18.982Z,71.29
2022-10-09T06:06:49.626Z,71.63
2022-10-09T06:09:23.150Z,71.66
2022-10-09T06:11:53.981Z,71.23
2022-10-09T06:14:23.457Z,70.62
2022-10-09T06:16:51.901Z,70.51
2022-10-09T06:19:21.043Z,70.21
2022-10-09T06:21:49.488Z,70.55
2022-10-09T06:24:28.852Z,70.81
2022-10-09T06:26:58.464Z,70.76
2022-10-09T06:29:26.925Z,70.81
2022-10-09T06:31:55.536Z,70.34
2022-10-09T06:34:25.061Z,70.57
2022-10-09T06:36:53.417Z,70.73
2022-10-09T06:39:22.795Z,70.92
2022-10-09T06:41:51.172Z,70.67
2022-10-09T06:44:31.354Z,70.38
2022-10-09T06:46:59.825Z,69.88
2022-10-09T06:49:28.184Z,69.46
2022-10-09T06:51:56.479Z,69.63
2022-10-09T06:54:24.897Z,69.22
2022-10-09T06:56:55.898Z,68.89
2022-10-09T06:59:24.138Z,68.48
2022-10-09T07:01:52.789Z,68.41
2022-10-09T07:04:21.832Z,68.36
2022-10-09T07:06:50.126Z,68.01
2022-10-09T07:09:18.597Z,67.23
2022-10-09T07:11:49.527Z,66.78
2022-10-09T07:14:18.658Z,66.54
2022-10-09T07:16:49.273Z,65.84
2022-10-09T07:19:19.374Z,65.36
2022-10-09T07:21:49.871Z,64.90
2022-10-09T07:24:20.751Z,64.75
2022-10-09T07:26:49.753Z,64.44
2022-10-09T07:29:20.042Z,64.41
2022-10-09T07:31:50.044Z,64.36
2022-10-09T07:34:18.465Z,64.33
2022-10-09T07:36:46.792Z,64.29
2022-10-09T07:39:19.523Z,64.26
2022-10-09T07:41:51.926Z,63.44
2022-10-09T07:44:20.177Z,64.33
2022-10-09T07:46:51.681Z,63.49
2022-10-09T07:49:20.366Z,64.22
2022-10-09T07:51:48.663Z,65.18
2022-10-09T07:54:17.046Z,65.36
2022-10-09T07:56:45.338Z,65.49
2022-10-09T07:59:16.161Z,64.20
2022-10-09T08:01:44.762Z,63.20
2022-10-09T08:04:13.140Z,62.67
2022-10-09T08:06:41.831Z,62.70
2022-10-09T08:09:10.323Z,63.30
2022-10-09T08:11:41.915Z,62.62
2022-10-09T08:14:18.183Z,62.01
2022-10-09T08:16:48.651Z,61.87
2022-10-09T08:19:16.908Z,61.76
2022-10-09T08:21:45.590Z,61.33
2022-10-09T08:24:14.203Z,61.11
2022-10-09T08:26:44.306Z,60.94
2022-10-09T08:29:14.195Z,60.30
2022-10-09T08:31:42.740Z,60.46
2022-10-09T08:34:12.253Z,60.53
2022-10-09T08:36:40.463Z,60.69
2022-10-09T08:39:08.753Z,59.69
2022-10-09T08:41:52.362Z,58.82
2022-10-09T08:44:40.106Z,58.75
2022-10-09T08:47:37.142Z,58.05
2022-10-09T08:50:23.339Z,58.30
2022-10-09T08:53:03.730Z,57.35
2022-10-09T08:55:41.678Z,58.08
2022-10-09T08:58:15.855Z,57.92
2022-10-09T09:00:50.540Z,57.30
2022-10-09T09:03:36.812Z,56.24
2022-10-09T09:06:33.012Z,55.64
2022-10-09T09:09:10.356Z,55.49
2022-10-09T09:12:15.169Z,54.82
2022-10-09T09:15:22.031Z,54.21
2022-10-09T09:18:04.541Z,53.28
2022-10-09T09:20:56.646Z,52.40
2022-10-09T09:23:40.741Z,52.59
2022-10-09T09:26:27.508Z,52.60
2022-10-09T09:29:02.656Z,53.29
2022-10-09T09:31:37.351Z,52.53
2022-10-09T09:34:44.521Z,52.31
2022-10-09T09:37:13.747Z,51.71
2022-10-09T09:42:31.702Z,52.01
2022-10-09T09:45:04.963Z,52.43
2022-10-09T09:47:47.017Z,52.89
2022-10-09T09:50:42.230Z,52.35
2022-10-09T09:53:37.014Z,51.98
2022-10-09T09:56:06.054Z,51.75
2022-10-09T09:58:38.717Z,51.94
2022-10-09T10:01:21.930Z,52.01
2022-10-09T10:03:54.715Z,52.21
2022-10-09T10:06:44.733Z,52.05
2022-10-09T10:09:19.298Z,52.86
2022-10-09T10:12:03.611Z,53.19
2022-10-09T10:14:34.262Z,53.82
2022-10-09T10:17:02.683Z,54.01
2022-10-09T10:19:35.753Z,54.30
2022-10-09T10:22:21.938Z,54.07
2022-10-09T10:24:52.597Z,54.09
2022-10-09T10:27:41.014Z,54.90
2022-10-09T10:30:16.059Z,55.40
2022-10-09T10:33:17.397Z,56.16
2022-10-09T10:35:49.787Z,57.46
2022-10-09T10:38:31.263Z,57.97
2022-10-09T10:41:36.705Z,58.21
2022-10-09T10:44:26.297Z,57.02
2022-10-09T10:47:04.021Z,57.47
2022-10-09T10:49:33.927Z,58.01
2022-10-09T10:52:23.465Z,58.50
2022-10-09T10:55:11.640Z,58.87
2022-10-09T10:58:06.405Z,58.73
2022-10-09T11:00:44.135Z,58.92
2022-10-09T11:03:52.840Z,58.75
2022-10-09T11:06:28.994Z,58.47
2022-10-09T11:09:07.369Z,58.55
2022-10-09T11:11:50.745Z,58.71
2022-10-09T11:14:43.026Z,58.35
2022-10-09T11:17:26.818Z,58.58
2022-10-09T11:20:27.770Z,58.40
2022-10-09T11:23:42.043Z,57.54
2022-10-09T11:26:36.955Z,57.87
2022-10-09T11:29:18.394Z,58.13
2022-10-09T11:31:57.185Z,58.44
2022-10-09T11:34:33.927Z,58.71
2022-10-09T11:37:07.218Z,58.93
2022-10-09T11:39:37.683Z,59.11
2022-10-09T11:42:07.177Z,59.33
2022-10-09T11:44:40.772Z,59.68
2022-10-09T11:47:30.121Z,60.07
2022-10-09T11:50:37.786Z,60.17
2022-10-09T11:53:19.776Z,60.19
2022-10-09T11:55:48.774Z,60.87
2022-10-09T11:58:20.241Z,61.15
2022-10-09T12:00:55.452Z,61.62
2022-10-09T12:03:34.287Z,61.80
2022-10-09T12:06:17.116Z,62.33
2022-10-09T12:09:06.272Z,62.51
2022-10-09T12:11:35.037Z,62.56
2022-10-09T12:14:08.487Z,62.42
2022-10-09T12:16:46.086Z,62.27
2022-10-09T12:19:31.543Z,62.24
2022-10-09T12:22:01.161Z,62.21
2022-10-09T12:24:48.371Z,62.14
2022-10-09T12:27:26.986Z,62.07
2022-10-09T12:30:05.321Z,61.90
2022-10-09T12:32:39.361Z,61.39
2022-10-09T12:35:47.986Z,61.34
2022-10-09T12:38:34.229Z,61.30
2022-10-09T12:41:07.273Z,61.89
2022-10-09T12:43:36.545Z,61.91
2022-10-09T12:46:04.930Z,62.00
2022-10-09T12:48:40.646Z,61.83
2022-10-09T12:51:17.407Z,61.86
2022-10-09T12:53:49.199Z,62.21
2022-10-09T12:56:24.734Z,62.98
2022-10-09T12:58:53.920Z,63.50
2022-10-09T13:01:22.820Z,63.83
2022-10-09T13:04:05.885Z,64.30
2022-10-09T13:06:48.140Z,64.60
2022-10-09T13:09:35.152Z,64.52
2022-10-09T13:12:27.756Z,64.42
2022-10-09T13:15:06.210Z,64.49
2022-10-09T13:17:41.803Z,64.41
2022-10-09T13:20:13.014Z,64.53
2022-10-09T13:22:42.344Z,64.75
2022-10-09T13:25:10.630Z,65.12
2022-10-09T13:27:40.130Z,64.72
2022-10-09T13:30:12.156Z,64.46
2022-10-09T13:32:40.530Z,64.20
2022-10-09T13:35:09.543Z,64.11
2022-10-09T13:37:37.813Z,64.40
2022-10-09T13:40:07.018Z,65.15
2022-10-09T13:42:37.352Z,65.63
2022-10-09T13:45:06.819Z,66.25
2022-10-09T13:47:35.094Z,65.93
2022-10-09T13:50:04.551Z,65.90
2022-10-09T13:52:32.909Z,66.26
2022-10-09T13:55:01.346Z,66.51
2022-10-09T13:57:29.740Z,66.62
2022-10-09T13:59:57.994Z,66.81
2022-10-09T14:02:26.589Z,67.20
2022-10-09T14:04:54.955Z,67.66
2022-10-09T14:07:23.651Z,67.81
2022-10-09T14:09:52.040Z,67.62
2022-10-09T14:12:20.306Z,68.13
2022-10-09T14:14:48.772Z,68.47
2022-10-09T14:17:16.883Z,68.68
2022-10-09T14:19:45.249Z,69.13
2022-10-09T14:22:13.701Z,69.62
2022-10-09T14:24:42.698Z,69.88
2022-10-09T14:27:11.210Z,70.10
2022-10-09T14:29:39.785Z,70.49
2022-10-09T14:32:08.178Z,70.89
2022-10-09T14:34:36.402Z,71.38
2022-10-09T14:37:13.610Z,71.70
2022-10-09T14:39:47.634Z,71.55
2022-10-09T14:42:15.931Z,71.53
2022-10-09T14:44:44.302Z,71.86
2022-10-09T14:47:12.644Z,71.83
2022-10-09T14:49:40.944Z,71.90
2022-10-09T14:52:09.182Z,71.74
2022-10-09T14:54:37.838Z,71.94
2022-10-09T14:57:06.286Z,72.52
2022-10-09T14:59:34.548Z,72.35
2022-10-09T15:02:02.936Z,72.70
2022-10-09T15:04:31.418Z,72.89
2022-10-09T15:06:59.900Z,73.18
2022-10-09T15:09:28.142Z,73.29
2022-10-09T15:11:57.361Z,73.32
2022-10-09T15:14:25.858Z,73.40
2022-10-09T15:16:54.117Z,73.77
2022-10-09T15:19:22.372Z,73.86
2022-10-09T15:21:51.080Z,74.00
2022-10-09T15:24:19.338Z,74.31
2022-10-09T15:26:47.643Z,75.06
2022-10-09T15:29:16.013Z,75.77
2022-10-09T15:31:44.281Z,76.70
2022-10-09T15:34:18.718Z,77.46
2022-10-09T15:36:47.342Z,77.99
2022-10-09T15:39:15.743Z,78.85
2022-10-09T15:41:44.375Z,78.98
2022-10-09T15:44:20.822Z,79.25
2022-10-09T15:46:50.279Z,79.13
2022-10-09T15:49:18.776Z,79.14
2022-10-09T15:51:47.100Z,78.92
2022-10-09T15:54:15.761Z,79.17
2022-10-09T15:56:44.058Z,79.31
2022-10-09T15:59:14.277Z,79.32
2022-10-09T16:01:44.003Z,79.60
2022-10-09T16:04:12.432Z,79.70
2022-10-09T16:06:40.741Z,79.63
2022-10-09T16:09:09.309Z,79.43
2022-10-09T16:11:37.663Z,78.42
2022-10-09T16:14:06.042Z,77.93
2022-10-09T16:16:34.358Z,77.75
2022-10-09T16:19:05.266Z,77.34
2022-10-09T16:21:34.195Z,77.64
2022-10-09T16:24:02.534Z,77.50
2022-10-09T16:26:30.924Z,77.44
2022-10-09T16:29:00.912Z,76.82
2022-10-09T16:31:35.303Z,76.61
2022-10-09T16:34:07.138Z,76.96
2022-10-09T16:36:35.517Z,77.30
2022-10-09T16:39:04.082Z,77.06
2022-10-09T16:41:32.581Z,76.70
2022-10-09T16:44:03.089Z,76.28
2022-10-09T16:49:15.224Z,75.43
2022-10-09T16:51:44.972Z,75.27
2022-10-09T16:54:13.240Z,75.01
2022-10-09T16:56:41.877Z,74.59
2022-10-09T16:59:13.645Z,74.59
2022-10-09T17:01:46.206Z,74.49
2022-10-09T17:04:15.104Z,74.41
2022-10-09T17:06:44.697Z,74.21
2022-10-09T17:09:14.636Z,73.88
2022-10-09T17:11:43.436Z,73.75
2022-10-09T17:14:12.505Z,73.80
2022-10-09T17:16:43.019Z,73.69
2022-10-09T17:19:11.824Z,73.39
2022-10-09T17:21:40.225Z,73.45
2022-10-09T17:24:09.270Z,73.23
2022-10-09T17:26:37.684Z,73.16
2022-10-09T17:29:06.065Z,72.94
2022-10-09T17:31:35.017Z,72.42
2022-10-09T17:34:05.085Z,72.07
2022-10-09T17:36:37.210Z,71.68
2022-10-09T17:39:08.992Z,71.67
2022-10-09T17:41:37.350Z,71.36
2022-10-09T17:44:06.612Z,71.61
2022-10-09T17:46:34.961Z,71.69
2022-10-09T17:49:04.419Z,71.74
2022-10-09T17:51:37.134Z,71.68
2022-10-09T17:54:13.702Z,71.75
2022-10-09T17:56:43.108Z,71.87
2022-10-09T17:59:12.505Z,71.82
2022-10-09T18:01:40.810Z,72.03
2022-10-09T18:04:15.605Z,72.09
2022-10-09T18:06:44.299Z,72.10
2022-10-09T18:09:12.624Z,72.14
2022-10-09T18:11:40.890Z,72.14
2022-10-09T18:14:10.054Z,72.18
2022-10-09T18:16:39.786Z,72.30
2022-10-09T18:19:13.782Z,72.17
2022-10-09T18:21:45.723Z,72.67
2022-10-09T18:24:15.330Z,72.38
2022-10-09T18:26:44.689Z,72.09
2022-10-09T18:29:13.322Z,72.09
2022-10-09T18:31:41.900Z,72.06
2022-10-09T18:34:11.002Z,71.93
2022-10-09T18:36:39.684Z,71.73
2022-10-09T18:39:12.381Z,71.61
2022-10-09T18:41:41.758Z,71.44
2022-10-09T18:44:17.629Z,71.31
2022-10-09T18:46:55.760Z,71.36
2022-10-09T18:49:30.550Z,71.25
2022-10-09T18:52:02.866Z,71.27
2022-10-09T18:54:31.607Z,70.97
2022-10-09T18:57:00.014Z,71.05
2022-10-09T18:59:29.615Z,71.13
2022-10-09T19:01:57.993Z,71.47
2022-10-09T19:04:26.371Z,71.37
2022-10-09T19:06:55.002Z,71.46
2022-10-09T19:09:23.250Z,71.56
2022-10-09T19:11:52.818Z,71.63
2022-10-09T19:14:21.615Z,71.84
2022-10-09T19:16:49.903Z,71.57
2022-10-09T19:19:19.172Z,71.58
2022-10-09T19:21:47.586Z,71.58
2022-10-09T19:24:15.943Z,71.93
2022-10-09T19:26:44.326Z,71.93
2022-10-09T19:29:12.659Z,71.88
2022-10-09T19:31:41.148Z,72.00
2022-10-09T19:34:09.392Z,71.90
2022-10-09T19:36:37.817Z,72.09
2022-10-09T19:39:08.875Z,72.31
2022-10-09T19:41:39.010Z,72.55
2022-10-09T19:44:07.384Z,72.77
2022-10-09T19:46:40.045Z,72.88
2022-10-09T19:49:09.559Z,73.08
2022-10-09T19:51:38.150Z,73.65
2022-10-09T19:54:08.662Z,73.89
2022-10-09T19:56:38.184Z,74.01
2022-10-09T19:59:08.690Z,74.84
2022-10-09T20:01:40.235Z,74.95
2022-10-09T20:04:10.989Z,75.16
2022-10-09T20:06:41.750Z,75.12
2022-10-09T20:09:12.367Z,74.58
2022-10-09T20:11:41.197Z,74.09
2022-10-09T20:14:10.053Z,73.90
2022-10-09T20:16:39.089Z,74.06
2022-10-09T20:19:07.521Z,74.10
2022-10-09T20:21:35.898Z,74.25
2022-10-09T20:24:06.312Z,74.17
2022-10-09T20:26:36.794Z,74.35
2022-10-09T20:29:07.594Z,74.13
2022-10-09T20:31:35.967Z,74.40
2022-10-09T20:34:04.651Z,73.87
2022-10-09T20:36:35.890Z,73.60
2022-10-09T20:39:08.975Z,73.37
2022-10-09T20:41:40.617Z,72.64
2022-10-09T20:44:11.071Z,72.33
2022-10-09T20:46:40.709Z,72.44
2022-10-09T20:49:14.016Z,72.52
2022-10-09T20:51:42.657Z,72.80
2022-10-09T20:54:17.972Z,73.00
2022-10-09T20:56:47.296Z,72.92
2022-10-09T20:59:16.911Z,72.96
2022-10-09T21:01:45.838Z,72.95
2022-10-09T21:04:15.002Z,72.77
2022-10-09T21:06:43.261Z,72.71
2022-10-09T21:09:11.748Z,72.50
2022-10-09T21:11:41.672Z,72.05
2022-10-09T21:14:10.123Z,71.73
2022-10-09T21:16:38.727Z,71.70
2022-10-09T21:19:07.148Z,71.62
2022-10-09T21:21:35.358Z,71.71
2022-10-09T21:24:04.583Z,71.23
2022-10-09T21:26:36.382Z,71.08
2022-10-09T21:29:05.497Z,70.84
2022-10-09T21:31:34.377Z,70.49
2022-10-09T21:34:02.942Z,70.42
2022-10-09T21:37:08.490Z,70.44
2022-10-09T21:39:31.757Z,70.70
2022-10-09T21:42:00.193Z,70.81
2022-10-09T21:44:28.672Z,70.39
2022-10-09T21:46:57.052Z,70.46
2022-10-09T21:49:28.309Z,70.43
2022-10-09T21:51:57.125Z,70.09
2022-10-09T21:54:25.564Z,69.87
2022-10-09T21:56:53.887Z,69.78
2022-10-09T21:59:22.430Z,69.84
2022-10-09T22:01:50.599Z,69.68
2022-10-09T22:04:19.590Z,69.72
2022-10-09T22:06:47.854Z,69.47
2022-10-09T22:09:16.230Z,69.33
2022-10-09T22:11:45.149Z,69.43
2022-10-09T22:14:14.161Z,69.28
2022-10-09T22:16:42.508Z,68.93
2022-10-09T22:19:10.987Z,68.99
2022-10-09T22:21:39.718Z,68.60
2022-10-09T22:24:08.347Z,68.44
2022-10-09T22:26:36.738Z,68.25
2022-10-09T22:29:05.033Z,67.98
2022-10-09T22:31:33.433Z,67.71
2022-10-09T22:34:02.262Z,67.66
2022-10-09T22:36:33.147Z,67.33
2022-10-09T22:39:05.221Z,67.21
2022-10-09T22:41:34.529Z,67.13
2022-10-09T22:44:06.034Z,66.91
2022-10-09T22:46:41.417Z,67.06
2022-10-09T22:49:14.842Z,66.91
2022-10-09T22:51:44.792Z,66.87
2022-10-09T22:54:14.020Z,67.09
2022-10-09T22:56:45.422Z,66.85
2022-10-09T22:59:18.230Z,66.66
2022-10-09T23:01:57.137Z,66.64
2022-10-09T23:04:25.500Z,66.87
2022-10-09T23:06:59.617Z,66.76
2022-10-09T23:09:31.683Z,66.89
2022-10-09T23:12:00.489Z,66.83
2022-10-09T23:14:29.072Z,66.86
2022-10-09T23:16:57.446Z,66.92
2022-10-09T23:19:25.829Z,67.04
2022-10-09T23:21:54.103Z,67.22
2022-10-09T23:24:22.486Z,67.18
2022-10-09T23:26:52.087Z,67.24
2022-10-09T23:29:22.037Z,67.11
2022-10-09T23:31:53.601Z,67.14
2022-10-09T23:34:21.940Z,67.33
2022-10-09T23:36:50.209Z,67.62
2022-10-09T23:39:19.816Z,67.71
2022-10-09T23:41:48.057Z,67.87
2022-10-09T23:44:20.082Z,68.01
2022-10-09T23:46:52.019Z,68.22
2022-10-09T23:49:20.489Z,68.15
2022-10-09T23:51:48.861Z,68.18
2022-10-09T23:54:17.245Z,68.43
2022-10-09T23:56:45.825Z,68.72
2022-10-09T23:59:14.114Z,68.78
